sensor_id;sensor_type;location;lat;lon;timestamp;pressure;altitude;pressure_sealevel;temperature;humidity
38852;BME280;24605;50.092;9.182;2023-01-29T00:00:18;99118.09;;;-2.15;90.78
38852;BME280;24605;50.092;9.182;2023-01-29T00:02:44;99111.19;;;-2.13;91.43
38852;BME280;24605;50.092;9.182;2023-01-29T00:05:11;99112.66;;;-1.85;90.41
38852;BME280;24605;50.092;9.182;2023-01-29T00:07:37;99104.53;;;-1.75;89.44
38852;BME280;24605;50.092;9.182;2023-01-29T00:10:06;99070.69;;;-2.07;88.61
38852;BME280;24605;50.092;9.182;2023-01-29T00:12:33;99105.94;;;-1.88;89.92
38852;BME280;24605;50.092;9.182;2023-01-29T00:15:00;99114.06;;;-1.99;90.94
38852;BME280;24605;50.092;9.182;2023-01-29T00:17:26;99111.63;;;-2.02;91.22
38852;BME280;24605;50.092;9.182;2023-01-29T00:19:52;99122.19;;;-2.10;92.78
38852;BME280;24605;50.092;9.182;2023-01-29T00:22:19;99120.13;;;-2.01;92.32
38852;BME280;24605;50.092;9.182;2023-01-29T00:24:45;99112.50;;;-2.03;92.45
38852;BME280;24605;50.092;9.182;2023-01-29T00:27:13;99079.28;;;-2.30;92.68
38852;BME280;24605;50.092;9.182;2023-01-29T00:29:40;99085.50;;;-2.36;92.15
38852;BME280;24605;50.092;9.182;2023-01-29T00:32:07;99127.56;;;-2.16;92.52
38852;BME280;24605;50.092;9.182;2023-01-29T00:34:34;99134.38;;;-2.15;93.26
38852;BME280;24605;50.092;9.182;2023-01-29T00:37:01;99134.63;;;-2.21;92.40
38852;BME280;24605;50.092;9.182;2023-01-29T00:39:33;99132.97;;;-2.24;91.62
38852;BME280;24605;50.092;9.182;2023-01-29T00:42:03;99116.94;;;-2.07;89.98
38852;BME280;24605;50.092;9.182;2023-01-29T00:44:49;99135.56;;;-2.01;90.58
38852;BME280;24605;50.092;9.182;2023-01-29T00:47:24;99130.75;;;-2.09;91.15
38852;BME280;24605;50.092;9.182;2023-01-29T00:49:58;99133.41;;;-2.12;91.94
38852;BME280;24605;50.092;9.182;2023-01-29T00:52:26;99126.56;;;-2.12;92.24
38852;BME280;24605;50.092;9.182;2023-01-29T00:54:53;99114.72;;;-1.94;91.86
38852;BME280;24605;50.092;9.182;2023-01-29T00:57:21;99111.69;;;-1.83;91.02
38852;BME280;24605;50.092;9.182;2023-01-29T00:59:48;99075.47;;;-1.97;90.87
38852;BME280;24605;50.092;9.182;2023-01-29T01:02:16;99111.50;;;-1.99;91.51
38852;BME280;24605;50.092;9.182;2023-01-29T01:05:01;99096.19;;;-2.24;91.93
38852;BME280;24605;50.092;9.182;2023-01-29T01:07:28;99097.19;;;-2.28;92.57
38852;BME280;24605;50.092;9.182;2023-01-29T01:09:54;99096.47;;;-2.32;92.30
38852;BME280;24605;50.092;9.182;2023-01-29T01:12:38;99085.75;;;-2.42;92.20
38852;BME280;24605;50.092;9.182;2023-01-29T01:15:07;99086.63;;;-2.43;92.45
38852;BME280;24605;50.092;9.182;2023-01-29T01:17:34;99094.50;;;-2.47;93.29
38852;BME280;24605;50.092;9.182;2023-01-29T01:20:00;99104.91;;;-2.28;91.77
38852;BME280;24605;50.092;9.182;2023-01-29T01:22:27;99107.94;;;-2.41;91.55
38852;BME280;24605;50.092;9.182;2023-01-29T01:24:53;99092.22;;;-2.55;92.34
38852;BME280;24605;50.092;9.182;2023-01-29T01:27:20;99086.72;;;-2.46;91.69
38852;BME280;24605;50.092;9.182;2023-01-29T01:29:46;99087.44;;;-2.42;91.83
38852;BME280;24605;50.092;9.182;2023-01-29T01:32:14;99074.25;;;-2.11;90.66
38852;BME280;24605;50.092;9.182;2023-01-29T01:34:41;99087.75;;;-1.83;89.69
38852;BME280;24605;50.092;9.182;2023-01-29T01:37:09;99086.91;;;-1.84;89.06
38852;BME280;24605;50.092;9.182;2023-01-29T01:39:36;99083.88;;;-1.94;88.52
38852;BME280;24605;50.092;9.182;2023-01-29T01:42:03;99084.78;;;-2.17;89.77
38852;BME280;24605;50.092;9.182;2023-01-29T01:44:53;99085.38;;;-2.32;92.18
38852;BME280;24605;50.092;9.182;2023-01-29T01:47:26;99073.69;;;-2.40;92.71
38852;BME280;24605;50.092;9.182;2023-01-29T01:49:55;99078.94;;;-2.43;93.11
38852;BME280;24605;50.092;9.182;2023-01-29T01:52:22;99069.00;;;-2.52;93.88
38852;BME280;24605;50.092;9.182;2023-01-29T01:54:49;99055.16;;;-2.26;93.05
38852;BME280;24605;50.092;9.182;2023-01-29T01:57:20;99068.53;;;-1.95;91.18
38852;BME280;24605;50.092;9.182;2023-01-29T01:59:55;99050.22;;;-1.87;90.52
38852;BME280;24605;50.092;9.182;2023-01-29T02:02:26;99063.31;;;-1.94;89.99
38852;BME280;24605;50.092;9.182;2023-01-29T02:05:11;99060.75;;;-1.94;90.46
38852;BME280;24605;50.092;9.182;2023-01-29T02:07:57;99037.38;;;-2.30;89.49
38852;BME280;24605;50.092;9.182;2023-01-29T02:10:42;99050.03;;;-2.26;89.52
38852;BME280;24605;50.092;9.182;2023-01-29T02:13:09;99041.91;;;-2.59;91.33
38852;BME280;24605;50.092;9.182;2023-01-29T02:15:39;99050.97;;;-2.50;91.92
38852;BME280;24605;50.092;9.182;2023-01-29T02:18:12;99037.00;;;-2.65;93.12
38852;BME280;24605;50.092;9.182;2023-01-29T02:20:41;99029.50;;;-2.48;93.22
38852;BME280;24605;50.092;9.182;2023-01-29T02:23:36;99046.00;;;-2.55;92.91
38852;BME280;24605;50.092;9.182;2023-01-29T02:26:27;99038.00;;;-2.70;94.55
38852;BME280;24605;50.092;9.182;2023-01-29T02:29:01;99052.59;;;-2.70;94.89
38852;BME280;24605;50.092;9.182;2023-01-29T02:31:51;99058.38;;;-2.65;95.05
38852;BME280;24605;50.092;9.182;2023-01-29T02:34:28;99044.16;;;-2.74;95.19
38852;BME280;24605;50.092;9.182;2023-01-29T02:37:12;99050.50;;;-2.60;94.23
38852;BME280;24605;50.092;9.182;2023-01-29T02:39:45;99067.63;;;-2.61;94.85
38852;BME280;24605;50.092;9.182;2023-01-29T02:42:24;99051.69;;;-2.93;96.62
38852;BME280;24605;50.092;9.182;2023-01-29T02:44:56;99061.91;;;-2.91;97.59
38852;BME280;24605;50.092;9.182;2023-01-29T02:47:31;99051.84;;;-2.97;97.63
38852;BME280;24605;50.092;9.182;2023-01-29T02:50:05;99060.44;;;-2.99;98.26
38852;BME280;24605;50.092;9.182;2023-01-29T02:52:43;99060.31;;;-2.72;96.92
38852;BME280;24605;50.092;9.182;2023-01-29T02:55:18;99056.22;;;-2.76;94.31
38852;BME280;24605;50.092;9.182;2023-01-29T02:57:47;99077.13;;;-2.87;95.20
38852;BME280;24605;50.092;9.182;2023-01-29T03:00:20;99079.88;;;-2.91;95.64
38852;BME280;24605;50.092;9.182;2023-01-29T03:02:51;99088.53;;;-2.72;95.77
38852;BME280;24605;50.092;9.182;2023-01-29T03:05:23;99093.50;;;-2.43;93.88
38852;BME280;24605;50.092;9.182;2023-01-29T03:07:55;99100.97;;;-2.37;93.18
38852;BME280;24605;50.092;9.182;2023-01-29T03:10:27;99101.75;;;-2.35;92.92
38852;BME280;24605;50.092;9.182;2023-01-29T03:13:00;99074.81;;;-2.71;94.41
38852;BME280;24605;50.092;9.182;2023-01-29T03:15:34;99095.75;;;-2.58;95.05
38852;BME280;24605;50.092;9.182;2023-01-29T03:18:09;99070.31;;;-2.64;94.55
38852;BME280;24605;50.092;9.182;2023-01-29T03:20:41;99072.41;;;-2.74;95.32
38852;BME280;24605;50.092;9.182;2023-01-29T03:23:13;99084.09;;;-2.66;96.00
38852;BME280;24605;50.092;9.182;2023-01-29T03:25:42;99077.06;;;-2.61;95.91
38852;BME280;24605;50.092;9.182;2023-01-29T03:28:27;99065.63;;;-2.76;96.68
38852;BME280;24605;50.092;9.182;2023-01-29T03:31:15;99055.84;;;-2.89;96.64
38852;BME280;24605;50.092;9.182;2023-01-29T03:34:05;99079.00;;;-2.68;96.96
38852;BME280;24605;50.092;9.182;2023-01-29T03:36:35;99084.56;;;-2.57;96.52
38852;BME280;24605;50.092;9.182;2023-01-29T03:39:04;99083.78;;;-2.59;96.35
38852;BME280;24605;50.092;9.182;2023-01-29T03:41:33;99089.78;;;-2.58;96.05
38852;BME280;24605;50.092;9.182;2023-01-29T03:44:09;99091.47;;;-2.57;96.00
38852;BME280;24605;50.092;9.182;2023-01-29T03:46:45;99099.56;;;-2.46;95.91
38852;BME280;24605;50.092;9.182;2023-01-29T03:49:20;99081.94;;;-2.55;96.04
38852;BME280;24605;50.092;9.182;2023-01-29T03:51:54;99072.94;;;-2.65;96.08
38852;BME280;24605;50.092;9.182;2023-01-29T03:54:29;99054.72;;;-2.81;96.03
38852;BME280;24605;50.092;9.182;2023-01-29T03:57:01;99064.06;;;-2.80;96.37
38852;BME280;24605;50.092;9.182;2023-01-29T03:59:34;99073.00;;;-2.91;97.51
38852;BME280;24605;50.092;9.182;2023-01-29T04:02:04;99076.47;;;-2.92;98.24
38852;BME280;24605;50.092;9.182;2023-01-29T04:04:33;99080.13;;;-2.99;99.50
38852;BME280;24605;50.092;9.182;2023-01-29T04:07:04;99062.91;;;-2.95;98.45
38852;BME280;24605;50.092;9.182;2023-01-29T04:09:36;99092.97;;;-2.99;99.12
38852;BME280;24605;50.092;9.182;2023-01-29T04:12:07;99091.34;;;-3.02;100.00
38852;BME280;24605;50.092;9.182;2023-01-29T04:14:35;99066.22;;;-3.17;99.89
38852;BME280;24605;50.092;9.182;2023-01-29T04:17:09;99054.31;;;-3.18;100.00
38852;BME280;24605;50.092;9.182;2023-01-29T04:19:38;99051.19;;;-3.26;100.00
38852;BME280;24605;50.092;9.182;2023-01-29T04:22:06;99064.69;;;-3.21;100.00
38852;BME280;24605;50.092;9.182;2023-01-29T04:24:36;99034.97;;;-3.52;100.00
38852;BME280;24605;50.092;9.182;2023-01-29T04:27:14;99051.34;;;-3.56;100.00
38852;BME280;24605;50.092;9.182;2023-01-29T04:29:55;99061.66;;;-3.58;100.00
38852;BME280;24605;50.092;9.182;2023-01-29T04:32:28;99049.63;;;-3.56;100.00
38852;BME280;24605;50.092;9.182;2023-01-29T04:35:00;99033.22;;;-3.75;100.00
38852;BME280;24605;50.092;9.182;2023-01-29T04:37:35;99025.88;;;-3.86;100.00
38852;BME280;24605;50.092;9.182;2023-01-29T04:40:15;99058.09;;;-3.79;100.00
38852;BME280;24605;50.092;9.182;2023-01-29T04:42:48;99034.59;;;-3.92;100.00
38852;BME280;24605;50.092;9.182;2023-01-29T04:45:23;99037.94;;;-3.90;100.00
38852;BME280;24605;50.092;9.182;2023-01-29T04:47:56;99040.88;;;-4.01;100.00
38852;BME280;24605;50.092;9.182;2023-01-29T04:50:27;99052.56;;;-4.20;100.00
38852;BME280;24605;50.092;9.182;2023-01-29T04:53:00;99015.03;;;-4.48;100.00
38852;BME280;24605;50.092;9.182;2023-01-29T04:55:33;99052.41;;;-4.43;100.00
38852;BME280;24605;50.092;9.182;2023-01-29T04:58:06;99055.97;;;-4.47;100.00
38852;BME280;24605;50.092;9.182;2023-01-29T05:00:38;99044.44;;;-4.33;100.00
38852;BME280;24605;50.092;9.182;2023-01-29T05:03:07;99061.19;;;-4.23;100.00
38852;BME280;24605;50.092;9.182;2023-01-29T05:05:36;99059.50;;;-4.24;100.00
38852;BME280;24605;50.092;9.182;2023-01-29T05:08:05;99074.53;;;-4.13;100.00
38852;BME280;24605;50.092;9.182;2023-01-29T05:10:33;99072.03;;;-4.15;100.00
38852;BME280;24605;50.092;9.182;2023-01-29T05:13:02;99083.44;;;-3.97;100.00
38852;BME280;24605;50.092;9.182;2023-01-29T05:15:34;99082.44;;;-3.92;100.00
38852;BME280;24605;50.092;9.182;2023-01-29T05:18:02;99070.28;;;-3.86;100.00
38852;BME280;24605;50.092;9.182;2023-01-29T05:20:36;99056.50;;;-3.83;100.00
38852;BME280;24605;50.092;9.182;2023-01-29T05:23:03;99053.88;;;-3.80;100.00
38852;BME280;24605;50.092;9.182;2023-01-29T05:25:32;99054.63;;;-3.78;100.00
38852;BME280;24605;50.092;9.182;2023-01-29T05:27:59;99019.72;;;-4.07;100.00
38852;BME280;24605;50.092;9.182;2023-01-29T05:30:33;99055.00;;;-3.89;100.00
38852;BME280;24605;50.092;9.182;2023-01-29T05:33:00;99038.97;;;-3.96;100.00
38852;BME280;24605;50.092;9.182;2023-01-29T05:35:27;99026.53;;;-4.06;100.00
38852;BME280;24605;50.092;9.182;2023-01-29T05:37:55;99038.78;;;-3.89;100.00
38852;BME280;24605;50.092;9.182;2023-01-29T05:40:22;99032.09;;;-3.94;100.00
38852;BME280;24605;50.092;9.182;2023-01-29T05:42:49;99044.09;;;-3.96;100.00
38852;BME280;24605;50.092;9.182;2023-01-29T05:45:16;99033.84;;;-3.96;100.00
38852;BME280;24605;50.092;9.182;2023-01-29T05:47:42;99051.41;;;-3.83;100.00
38852;BME280;24605;50.092;9.182;2023-01-29T05:50:10;99029.28;;;-4.13;100.00
38852;BME280;24605;50.092;9.182;2023-01-29T05:52:36;99043.66;;;-4.09;100.00
38852;BME280;24605;50.092;9.182;2023-01-29T05:55:06;99031.94;;;-4.16;100.00
38852;BME280;24605;50.092;9.182;2023-01-29T05:57:32;99074.53;;;-3.86;100.00
38852;BME280;24605;50.092;9.182;2023-01-29T05:59:59;99065.38;;;-3.94;100.00
38852;BME280;24605;50.092;9.182;2023-01-29T06:02:28;99060.41;;;-3.98;100.00
38852;BME280;24605;50.092;9.182;2023-01-29T06:04:55;99066.31;;;-3.96;100.00
38852;BME280;24605;50.092;9.182;2023-01-29T06:07:21;99050.22;;;-4.00;100.00
38852;BME280;24605;50.092;9.182;2023-01-29T06:09:48;99051.78;;;-3.96;100.00
38852;BME280;24605;50.092;9.182;2023-01-29T06:12:16;99051.47;;;-3.85;100.00
38852;BME280;24605;50.092;9.182;2023-01-29T06:14:42;99037.94;;;-3.90;100.00
38852;BME280;24605;50.092;9.182;2023-01-29T06:17:09;99052.13;;;-3.80;100.00
38852;BME280;24605;50.092;9.182;2023-01-29T06:19:35;99027.75;;;-3.91;100.00
38852;BME280;24605;50.092;9.182;2023-01-29T06:22:02;99047.06;;;-3.81;100.00
38852;BME280;24605;50.092;9.182;2023-01-29T06:24:28;99058.72;;;-3.72;100.00
38852;BME280;24605;50.092;9.182;2023-01-29T06:26:57;99052.47;;;-3.64;100.00
38852;BME280;24605;50.092;9.182;2023-01-29T06:29:25;99055.69;;;-3.58;100.00
38852;BME280;24605;50.092;9.182;2023-01-29T06:31:51;99053.16;;;-3.35;100.00
38852;BME280;24605;50.092;9.182;2023-01-29T06:34:18;99034.47;;;-3.37;100.00
38852;BME280;24605;50.092;9.182;2023-01-29T06:36:44;99030.25;;;-3.39;100.00
38852;BME280;24605;50.092;9.182;2023-01-29T06:39:11;99043.69;;;-3.33;100.00
38852;BME280;24605;50.092;9.182;2023-01-29T06:41:37;99041.34;;;-3.39;100.00
38852;BME280;24605;50.092;9.182;2023-01-29T06:44:04;99045.53;;;-3.36;100.00
38852;BME280;24605;50.092;9.182;2023-01-29T06:46:32;99043.22;;;-3.19;100.00
38852;BME280;24605;50.092;9.182;2023-01-29T06:48:58;99030.22;;;-3.14;100.00
38852;BME280;24605;50.092;9.182;2023-01-29T06:51:25;98965.34;;;-3.64;100.00
38852;BME280;24605;50.092;9.182;2023-01-29T06:53:52;99027.75;;;-3.17;100.00
38852;BME280;24605;50.092;9.182;2023-01-29T06:56:20;99027.50;;;-3.09;100.00
38852;BME280;24605;50.092;9.182;2023-01-29T06:58:47;99030.31;;;-3.17;100.00
38852;BME280;24605;50.092;9.182;2023-01-29T07:01:14;99035.50;;;-2.95;100.00
38852;BME280;24605;50.092;9.182;2023-01-29T07:03:42;99041.22;;;-3.10;100.00
38852;BME280;24605;50.092;9.182;2023-01-29T07:06:09;99051.66;;;-2.91;100.00
38852;BME280;24605;50.092;9.182;2023-01-29T07:08:36;99058.88;;;-2.79;100.00
38852;BME280;24605;50.092;9.182;2023-01-29T07:11:03;99059.34;;;-2.91;100.00
38852;BME280;24605;50.092;9.182;2023-01-29T07:13:30;99076.38;;;-2.90;100.00
38852;BME280;24605;50.092;9.182;2023-01-29T07:15:57;99045.81;;;-2.73;100.00
38852;BME280;24605;50.092;9.182;2023-01-29T07:18:23;99075.06;;;-2.77;100.00
38852;BME280;24605;50.092;9.182;2023-01-29T07:20:51;99064.50;;;-3.17;100.00
38852;BME280;24605;50.092;9.182;2023-01-29T07:23:18;99077.13;;;-3.10;100.00
38852;BME280;24605;50.092;9.182;2023-01-29T07:25:44;98994.88;;;-3.53;100.00
38852;BME280;24605;50.092;9.182;2023-01-29T07:28:14;99045.50;;;-3.11;100.00
38852;BME280;24605;50.092;9.182;2023-01-29T07:30:40;99053.19;;;-2.87;100.00
38852;BME280;24605;50.092;9.182;2023-01-29T07:33:08;99077.06;;;-2.85;100.00
38852;BME280;24605;50.092;9.182;2023-01-29T07:35:36;99068.84;;;-2.95;100.00
38852;BME280;24605;50.092;9.182;2023-01-29T07:38:05;99059.69;;;-3.01;100.00
38852;BME280;24605;50.092;9.182;2023-01-29T07:40:31;99067.22;;;-2.96;100.00
38852;BME280;24605;50.092;9.182;2023-01-29T07:42:58;99049.19;;;-2.94;100.00
38852;BME280;24605;50.092;9.182;2023-01-29T07:45:25;99055.59;;;-2.83;100.00
38852;BME280;24605;50.092;9.182;2023-01-29T07:47:51;99056.66;;;-2.64;100.00
38852;BME280;24605;50.092;9.182;2023-01-29T07:50:19;99076.16;;;-2.60;100.00
38852;BME280;24605;50.092;9.182;2023-01-29T07:52:45;99072.97;;;-2.43;100.00
38852;BME280;24605;50.092;9.182;2023-01-29T07:55:13;99055.56;;;-2.37;99.51
38852;BME280;24605;50.092;9.182;2023-01-29T07:57:40;99065.81;;;-2.13;98.60
38852;BME280;24605;50.092;9.182;2023-01-29T08:00:07;99057.56;;;-2.21;97.18
38852;BME280;24605;50.092;9.182;2023-01-29T08:02:34;99025.88;;;-2.22;96.85
38852;BME280;24605;50.092;9.182;2023-01-29T08:05:00;99055.63;;;-2.16;95.80
38852;BME280;24605;50.092;9.182;2023-01-29T08:07:27;99067.06;;;-2.02;95.67
38852;BME280;24605;50.092;9.182;2023-01-29T08:09:53;99069.47;;;-1.98;95.49
38852;BME280;24605;50.092;9.182;2023-01-29T08:12:21;99075.38;;;-1.96;96.15
38852;BME280;24605;50.092;9.182;2023-01-29T08:14:48;99073.72;;;-1.97;95.08
38852;BME280;24605;50.092;9.182;2023-01-29T08:17:14;99085.84;;;-2.00;94.74
38852;BME280;24605;50.092;9.182;2023-01-29T08:19:41;99087.16;;;-2.12;97.06
38852;BME280;24605;50.092;9.182;2023-01-29T08:22:07;99106.19;;;-1.94;95.17
38852;BME280;24605;50.092;9.182;2023-01-29T08:24:34;99103.03;;;-1.80;93.98
38852;BME280;24605;50.092;9.182;2023-01-29T08:27:01;99088.19;;;-1.94;93.79
38852;BME280;24605;50.092;9.182;2023-01-29T08:29:29;99076.75;;;-1.87;93.73
38852;BME280;24605;50.092;9.182;2023-01-29T08:31:55;99064.09;;;-1.71;93.60
38852;BME280;24605;50.092;9.182;2023-01-29T08:34:22;99049.66;;;-1.53;90.74
38852;BME280;24605;50.092;9.182;2023-01-29T08:36:48;99043.34;;;-1.46;91.20
38852;BME280;24605;50.092;9.182;2023-01-29T08:39:15;99049.94;;;-1.19;90.59
38852;BME280;24605;50.092;9.182;2023-01-29T08:41:41;99053.03;;;-1.11;88.11
38852;BME280;24605;50.092;9.182;2023-01-29T08:44:08;99049.97;;;-1.00;88.23
38852;BME280;24605;50.092;9.182;2023-01-29T08:46:37;99059.69;;;-1.07;88.22
38852;BME280;24605;50.092;9.182;2023-01-29T08:49:06;99050.56;;;-1.33;88.66
38852;BME280;24605;50.092;9.182;2023-01-29T08:51:34;99068.50;;;-1.13;87.78
38852;BME280;24605;50.092;9.182;2023-01-29T08:54:00;99028.41;;;-1.37;88.90
38852;BME280;24605;50.092;9.182;2023-01-29T08:56:27;99064.34;;;-1.36;89.82
38852;BME280;24605;50.092;9.182;2023-01-29T08:58:53;99061.34;;;-1.46;89.13
38852;BME280;24605;50.092;9.182;2023-01-29T09:01:20;99064.63;;;-1.42;89.54
38852;BME280;24605;50.092;9.182;2023-01-29T09:03:48;99074.66;;;-1.56;89.26
38852;BME280;24605;50.092;9.182;2023-01-29T09:06:16;99095.78;;;-1.50;89.33
38852;BME280;24605;50.092;9.182;2023-01-29T09:08:43;99064.66;;;-2.06;89.33
38852;BME280;24605;50.092;9.182;2023-01-29T09:11:09;99077.59;;;-1.86;90.45
38852;BME280;24605;50.092;9.182;2023-01-29T09:13:36;99094.25;;;-1.54;89.72
38852;BME280;24605;50.092;9.182;2023-01-29T09:16:03;99089.63;;;-1.66;90.11
38852;BME280;24605;50.092;9.182;2023-01-29T09:18:31;99107.53;;;-1.43;90.36
38852;BME280;24605;50.092;9.182;2023-01-29T09:20:59;99131.22;;;-1.56;90.31
38852;BME280;24605;50.092;9.182;2023-01-29T09:23:27;99128.47;;;-1.52;90.07
38852;BME280;24605;50.092;9.182;2023-01-29T09:25:53;99121.00;;;-1.58;89.64
38852;BME280;24605;50.092;9.182;2023-01-29T09:28:20;99139.31;;;-1.66;90.66
38852;BME280;24605;50.092;9.182;2023-01-29T09:30:47;99140.13;;;-1.86;91.32
38852;BME280;24605;50.092;9.182;2023-01-29T09:33:14;99147.03;;;-1.88;91.52
38852;BME280;24605;50.092;9.182;2023-01-29T09:35:40;99143.22;;;-1.78;92.12
38852;BME280;24605;50.092;9.182;2023-01-29T09:38:09;99142.69;;;-1.86;92.42
38852;BME280;24605;50.092;9.182;2023-01-29T09:40:41;99133.75;;;-1.77;91.25
38852;BME280;24605;50.092;9.182;2023-01-29T09:43:15;99136.66;;;-1.64;91.42
38852;BME280;24605;50.092;9.182;2023-01-29T09:45:48;99140.91;;;-1.63;90.83
38852;BME280;24605;50.092;9.182;2023-01-29T09:48:16;99100.41;;;-1.79;91.23
38852;BME280;24605;50.092;9.182;2023-01-29T09:50:46;99115.31;;;-1.66;89.89
38852;BME280;24605;50.092;9.182;2023-01-29T09:53:22;99102.84;;;-1.76;90.31
38852;BME280;24605;50.092;9.182;2023-01-29T09:55:54;99126.50;;;-1.67;91.08
38852;BME280;24605;50.092;9.182;2023-01-29T09:58:27;99111.66;;;-1.61;91.14
38852;BME280;24605;50.092;9.182;2023-01-29T10:01:01;99124.34;;;-1.56;90.29
38852;BME280;24605;50.092;9.182;2023-01-29T10:03:42;99122.03;;;-1.62;90.74
38852;BME280;24605;50.092;9.182;2023-01-29T10:06:22;99111.63;;;-1.59;90.71
38852;BME280;24605;50.092;9.182;2023-01-29T10:09:27;99112.66;;;-1.43;89.75
38852;BME280;24605;50.092;9.182;2023-01-29T10:12:09;99097.50;;;-1.71;91.30
38852;BME280;24605;50.092;9.182;2023-01-29T10:14:45;99080.91;;;-1.42;89.74
38852;BME280;24605;50.092;9.182;2023-01-29T10:17:30;99056.25;;;-1.27;89.49
38852;BME280;24605;50.092;9.182;2023-01-29T10:20:12;99046.81;;;-1.07;88.32
38852;BME280;24605;50.092;9.182;2023-01-29T10:22:53;98932.47;;;-1.59;87.00
38852;BME280;24605;50.092;9.182;2023-01-29T10:25:24;99076.47;;;-0.41;85.63
38852;BME280;24605;50.092;9.182;2023-01-29T10:27:53;99067.84;;;-0.40;85.12
38852;BME280;24605;50.092;9.182;2023-01-29T10:30:27;99044.38;;;-0.53;83.70
38852;BME280;24605;50.092;9.182;2023-01-29T10:33:00;99063.56;;;-0.58;84.39
38852;BME280;24605;50.092;9.182;2023-01-29T10:35:29;99045.53;;;-0.58;85.21
38852;BME280;24605;50.092;9.182;2023-01-29T10:38:07;99041.09;;;-0.37;84.40
38852;BME280;24605;50.092;9.182;2023-01-29T10:40:45;98952.50;;;-1.08;84.49
38852;BME280;24605;50.092;9.182;2023-01-29T10:43:19;99044.75;;;-0.60;85.32
38852;BME280;24605;50.092;9.182;2023-01-29T10:45:53;99039.94;;;-0.87;86.17
38852;BME280;24605;50.092;9.182;2023-01-29T10:48:38;99047.03;;;-1.12;87.98
38852;BME280;24605;50.092;9.182;2023-01-29T10:51:13;99048.81;;;-1.14;87.19
38852;BME280;24605;50.092;9.182;2023-01-29T10:53:52;99042.72;;;-0.92;87.30
38852;BME280;24605;50.092;9.182;2023-01-29T10:56:42;99026.19;;;-0.86;86.84
38852;BME280;24605;50.092;9.182;2023-01-29T10:59:29;98968.72;;;-1.25;86.64
38852;BME280;24605;50.092;9.182;2023-01-29T11:02:00;99023.88;;;-1.12;87.28
38852;BME280;24605;50.092;9.182;2023-01-29T11:04:28;98992.69;;;-1.05;86.45
38852;BME280;24605;50.092;9.182;2023-01-29T11:06:57;99003.84;;;-1.05;87.01
38852;BME280;24605;50.092;9.182;2023-01-29T11:09:28;99000.38;;;-1.04;87.06
38852;BME280;24605;50.092;9.182;2023-01-29T11:12:01;98934.97;;;-1.00;86.22
38852;BME280;24605;50.092;9.182;2023-01-29T11:14:32;98998.47;;;-0.25;83.70
38852;BME280;24605;50.092;9.182;2023-01-29T11:17:00;98991.41;;;-0.04;82.64
38852;BME280;24605;50.092;9.182;2023-01-29T11:19:36;98969.69;;;-0.53;83.90
38852;BME280;24605;50.092;9.182;2023-01-29T11:22:03;98973.00;;;-0.32;84.67
38852;BME280;24605;50.092;9.182;2023-01-29T11:24:33;98965.78;;;-0.07;82.43
38852;BME280;24605;50.092;9.182;2023-01-29T11:27:12;98973.59;;;0.09;81.26
38852;BME280;24605;50.092;9.182;2023-01-29T11:29:42;98950.59;;;0.22;81.19
38852;BME280;24605;50.092;9.182;2023-01-29T11:32:12;98944.69;;;0.20;80.62
38852;BME280;24605;50.092;9.182;2023-01-29T11:34:56;98958.91;;;-0.24;81.99
38852;BME280;24605;50.092;9.182;2023-01-29T11:37:30;98958.22;;;-0.28;82.60
38852;BME280;24605;50.092;9.182;2023-01-29T11:39:58;98948.44;;;-0.21;81.69
38852;BME280;24605;50.092;9.182;2023-01-29T11:42:29;98945.47;;;-0.13;82.55
38852;BME280;24605;50.092;9.182;2023-01-29T11:44:56;98924.50;;;-0.06;81.11
38852;BME280;24605;50.092;9.182;2023-01-29T11:47:26;98938.97;;;0.48;79.11
38852;BME280;24605;50.092;9.182;2023-01-29T11:49:56;98913.78;;;0.36;79.14
38852;BME280;24605;50.092;9.182;2023-01-29T11:52:24;98933.31;;;0.24;80.13
38852;BME280;24605;50.092;9.182;2023-01-29T11:54:55;98891.72;;;0.30;79.93
38852;BME280;24605;50.092;9.182;2023-01-29T11:57:28;98931.28;;;0.46;79.61
38852;BME280;24605;50.092;9.182;2023-01-29T11:59:59;98909.88;;;0.28;81.71
38852;BME280;24605;50.092;9.182;2023-01-29T12:02:32;98936.38;;;0.48;79.93
38852;BME280;24605;50.092;9.182;2023-01-29T12:05:04;98928.78;;;0.45;79.06
38852;BME280;24605;50.092;9.182;2023-01-29T12:07:33;98862.06;;;0.05;80.30
38852;BME280;24605;50.092;9.182;2023-01-29T12:10:00;98877.16;;;0.13;80.09
38852;BME280;24605;50.092;9.182;2023-01-29T12:12:36;98911.31;;;0.50;79.56
38852;BME280;24605;50.092;9.182;2023-01-29T12:15:14;98911.13;;;0.37;80.26
38852;BME280;24605;50.092;9.182;2023-01-29T12:17:46;98888.66;;;0.39;78.23
38852;BME280;24605;50.092;9.182;2023-01-29T12:20:19;98905.75;;;0.58;78.92
38852;BME280;24605;50.092;9.182;2023-01-29T12:22:52;98906.59;;;0.74;78.01
38852;BME280;24605;50.092;9.182;2023-01-29T12:25:28;98893.75;;;0.89;77.31
38852;BME280;24605;50.092;9.182;2023-01-29T12:28:06;98901.16;;;1.11;77.21
38852;BME280;24605;50.092;9.182;2023-01-29T12:30:43;98862.63;;;0.92;76.10
38852;BME280;24605;50.092;9.182;2023-01-29T12:33:26;98885.16;;;0.24;77.89
38852;BME280;24605;50.092;9.182;2023-01-29T12:36:01;98853.63;;;0.19;78.73
38852;BME280;24605;50.092;9.182;2023-01-29T12:38:34;98878.63;;;0.51;77.98
38852;BME280;24605;50.092;9.182;2023-01-29T12:41:05;98860.22;;;-0.09;79.92
38852;BME280;24605;50.092;9.182;2023-01-29T12:43:38;98831.59;;;0.45;79.34
38852;BME280;24605;50.092;9.182;2023-01-29T12:46:14;98837.66;;;0.76;78.46
38852;BME280;24605;50.092;9.182;2023-01-29T12:48:45;98840.41;;;0.73;76.57
38852;BME280;24605;50.092;9.182;2023-01-29T12:51:17;98850.81;;;0.56;77.83
38852;BME280;24605;50.092;9.182;2023-01-29T12:53:48;98779.69;;;0.36;78.46
38852;BME280;24605;50.092;9.182;2023-01-29T12:56:25;98851.41;;;0.93;77.63
38852;BME280;24605;50.092;9.182;2023-01-29T12:58:57;98849.06;;;0.88;78.42
38852;BME280;24605;50.092;9.182;2023-01-29T13:01:28;98834.34;;;0.74;78.05
38852;BME280;24605;50.092;9.182;2023-01-29T13:04:00;98839.50;;;0.42;78.70
38852;BME280;24605;50.092;9.182;2023-01-29T13:06:30;98774.69;;;0.17;79.02
38852;BME280;24605;50.092;9.182;2023-01-29T13:09:02;98836.44;;;0.52;79.54
38852;BME280;24605;50.092;9.182;2023-01-29T13:11:36;98825.50;;;0.14;79.67
38852;BME280;24605;50.092;9.182;2023-01-29T13:14:12;98828.72;;;0.02;80.63
38852;BME280;24605;50.092;9.182;2023-01-29T13:16:47;98819.13;;;-0.12;82.06